sensor_id;sensor_type;location;lat;lon;timestamp;temperature;humidity
45237;DHT22;30973;51.442;3.580;2022-09-09T09:26:07;19.10;99.90
45237;DHT22;30973;51.442;3.580;2022-09-09T09:28:37;18.90;99.90
45237;DHT22;30973;51.442;3.580;2022-09-09T09:31:12;19.10;99.90
45237;DHT22;30973;51.442;3.580;2022-09-09T09:33:50;19.20;99.90
45237;DHT22;30973;51.442;3.580;2022-09-09T09:36:32;19.10;99.90
45237;DHT22;30973;51.442;3.580;2022-09-09T09:39:03;18.90;99.90
45237;DHT22;30973;51.442;3.580;2022-09-09T09:41:53;19.00;99.90
45237;DHT22;30973;51.442;3.580;2022-09-09T09:44:27;18.90;99.90
45237;DHT22;30973;51.442;3.580;2022-09-09T09:47:20;18.90;99.90
45237;DHT22;30973;51.442;3.580;2022-09-09T09:50:00;19.00;99.90
45237;DHT22;30973;51.442;3.580;2022-09-09T09:52:35;19.10;99.90
45237;DHT22;30973;51.442;3.580;2022-09-09T09:55:12;19.00;99.90
45237;DHT22;30973;51.442;3.580;2022-09-09T10:00:14;18.80;99.90
45237;DHT22;30973;51.442;3.580;2022-09-09T10:02:46;18.80;99.90
45237;DHT22;30973;51.442;3.580;2022-09-09T10:05:22;18.90;99.90
45237;DHT22;30973;51.442;3.580;2022-09-09T14:51:14;18.90;99.90
45237;DHT22;30973;51.442;3.580;2022-09-09T14:53:43;19.10;99.90
45237;DHT22;30973;51.442;3.580;2022-09-09T14:56:13;19.20;99.90
45237;DHT22;30973;51.442;3.580;2022-09-09T14:58:41;19.30;99.90
45237;DHT22;30973;51.442;3.580;2022-09-09T15:01:10;19.40;99.90
45237;DHT22;30973;51.442;3.580;2022-09-09T15:03:39;19.40;99.90
45237;DHT22;30973;51.442;3.580;2022-09-09T15:06:13;19.40;99.90
45237;DHT22;30973;51.442;3.580;2022-09-09T15:08:43;19.40;99.90
45237;DHT22;30973;51.442;3.580;2022-09-09T15:11:12;19.50;99.90
45237;DHT22;30973;51.442;3.580;2022-09-09T15:13:40;19.50;99.90
45237;DHT22;30973;51.442;3.580;2022-09-09T15:16:17;19.40;99.90
45237;DHT22;30973;51.442;3.580;2022-09-09T15:18:45;19.50;99.90
45237;DHT22;30973;51.442;3.580;2022-09-09T15:21:15;19.50;99.90
45237;DHT22;30973;51.442;3.580;2022-09-09T15:23:43;19.50;99.90
45237;DHT22;30973;51.442;3.580;2022-09-09T15:26:11;19.30;99.90
45237;DHT22;30973;51.442;3.580;2022-09-09T15:28:42;19.20;99.90
45237;DHT22;30973;51.442;3.580;2022-09-09T15:31:22;19.20;99.90
45237;DHT22;30973;51.442;3.580;2022-09-09T15:33:59;19.20;99.90
45237;DHT22;30973;51.442;3.580;2022-09-09T15:36:34;19.10;99.90
45237;DHT22;30973;51.442;3.580;2022-09-09T15:39:03;19.10;99.90
45237;DHT22;30973;51.442;3.580;2022-09-09T15:41:30;19.10;99.90
45237;DHT22;30973;51.442;3.580;2022-09-09T15:44:01;19.10;99.90
45237;DHT22;30973;51.442;3.580;2022-09-09T15:49:07;18.90;99.90
45237;DHT22;30973;51.442;3.580;2022-09-09T15:51:41;18.90;99.90
45237;DHT22;30973;51.442;3.580;2022-09-09T15:54:11;18.90;99.90
45237;DHT22;30973;51.442;3.580;2022-09-09T15:56:40;19.10;99.90
45237;DHT22;30973;51.442;3.580;2022-09-09T15:59:07;19.10;99.90
45237;DHT22;30973;51.442;3.580;2022-09-09T16:01:35;19.20;99.90
45237;DHT22;30973;51.442;3.580;2022-09-09T16:04:02;19.30;99.90
45237;DHT22;30973;51.442;3.580;2022-09-09T16:06:31;19.20;99.90
45237;DHT22;30973;51.442;3.580;2022-09-09T16:08:59;19.20;99.90
45237;DHT22;30973;51.442;3.580;2022-09-09T16:11:33;19.20;99.90
45237;DHT22;30973;51.442;3.580;2022-09-09T16:14:01;19.20;99.90
45237;DHT22;30973;51.442;3.580;2022-09-09T16:16:31;19.20;99.90
45237;DHT22;30973;51.442;3.580;2022-09-09T16:19:00;19.10;99.90
45237;DHT22;30973;51.442;3.580;2022-09-09T16:21:30;19.10;99.90
45237;DHT22;30973;51.442;3.580;2022-09-09T16:23:59;19.10;99.90
45237;DHT22;30973;51.442;3.580;2022-09-09T16:26:28;19.00;99.90
45237;DHT22;30973;51.442;3.580;2022-09-09T16:28:56;19.00;99.90
45237;DHT22;30973;51.442;3.580;2022-09-09T16:31:27;18.90;99.90
45237;DHT22;30973;51.442;3.580;2022-09-09T16:33:57;18.90;99.90
45237;DHT22;30973;51.442;3.580;2022-09-09T16:36:27;18.90;99.90
45237;DHT22;30973;51.442;3.580;2022-09-09T16:38:56;18.90;99.90
45237;DHT22;30973;51.442;3.580;2022-09-09T16:41:25;19.00;99.90
45237;DHT22;30973;51.442;3.580;2022-09-09T16:46:23;18.90;99.90
45237;DHT22;30973;51.442;3.580;2022-09-09T16:48:51;18.90;99.90
45237;DHT22;30973;51.442;3.580;2022-09-09T16:51:27;18.90;99.90
45237;DHT22;30973;51.442;3.580;2022-09-09T16:53:57;18.80;99.90
45237;DHT22;30973;51.442;3.580;2022-09-09T16:56:26;18.80;99.90
45237;DHT22;30973;51.442;3.580;2022-09-09T16:58:55;18.80;99.90
45237;DHT22;30973;51.442;3.580;2022-09-09T17:01:30;18.80;99.90
45237;DHT22;30973;51.442;3.580;2022-09-09T17:04:01;18.70;99.90
45237;DHT22;30973;51.442;3.580;2022-09-09T17:06:33;18.80;99.90
45237;DHT22;30973;51.442;3.580;2022-09-09T17:09:10;18.90;99.90
45237;DHT22;30973;51.442;3.580;2022-09-09T17:11:38;18.90;99.90
45237;DHT22;30973;51.442;3.580;2022-09-09T17:14:08;19.00;99.90
45237;DHT22;30973;51.442;3.580;2022-09-09T17:16:36;18.90;99.90
45237;DHT22;30973;51.442;3.580;2022-09-09T17:19:07;19.00;99.90
45237;DHT22;30973;51.442;3.580;2022-09-09T17:21:36;19.00;99.90
45237;DHT22;30973;51.442;3.580;2022-09-09T17:24:24;19.00;99.90
45237;DHT22;30973;51.442;3.580;2022-09-09T17:26:52;19.00;99.90
45237;DHT22;30973;51.442;3.580;2022-09-09T17:29:21;19.00;99.90
45237;DHT22;30973;51.442;3.580;2022-09-09T17:31:48;19.00;99.90
45237;DHT22;30973;51.442;3.580;2022-09-09T17:34:16;19.00;99.90
45237;DHT22;30973;51.442;3.580;2022-09-09T17:36:43;19.10;99.90
45237;DHT22;30973;51.442;3.580;2022-09-09T17:39:11;19.00;99.90
45237;DHT22;30973;51.442;3.580;2022-09-09T17:41:38;18.90;99.90
45237;DHT22;30973;51.442;3.580;2022-09-09T17:44:07;19.00;99.90
45237;DHT22;30973;51.442;3.580;2022-09-09T17:46:41;18.90;99.90
45237;DHT22;30973;51.442;3.580;2022-09-09T17:49:14;19.00;99.90
45237;DHT22;30973;51.442;3.580;2022-09-09T17:51:43;18.80;99.90
45237;DHT22;30973;51.442;3.580;2022-09-09T17:54:14;18.70;99.90
45237;DHT22;30973;51.442;3.580;2022-09-09T17:56:43;18.70;99.90
45237;DHT22;30973;51.442;3.580;2022-09-09T18:01:42;18.80;99.90
45237;DHT22;30973;51.442;3.580;2022-09-09T18:04:15;18.70;99.90
45237;DHT22;30973;51.442;3.580;2022-09-09T18:06:48;18.70;99.90
45237;DHT22;30973;51.442;3.580;2022-09-09T18:11:49;18.70;99.90
45237;DHT22;30973;51.442;3.580;2022-09-09T18:14:19;18.70;99.90
45237;DHT22;30973;51.442;3.580;2022-09-09T18:19:18;18.80;99.90
45237;DHT22;30973;51.442;3.580;2022-09-09T18:21:46;18.70;99.90
45237;DHT22;30973;51.442;3.580;2022-09-09T18:24:15;18.70;99.90
45237;DHT22;30973;51.442;3.580;2022-09-09T18:26:44;18.70;99.90
45237;DHT22;30973;51.442;3.580;2022-09-09T18:29:14;18.70;99.90
45237;DHT22;30973;51.442;3.580;2022-09-09T18:36:49;18.70;99.90
45237;DHT22;30973;51.442;3.580;2022-09-09T18:39:24;18.70;99.90
